sensor_id;sensor_type;location;lat;lon;timestamp;P1;durP1;ratioP1;P2;durP2;ratioP2
58242;SDS011;50118;53.232;8.252;2023-05-10T00:00:09;15.18;;;11.48;;
58242;SDS011;50118;53.232;8.252;2023-05-10T00:02:35;15.00;;;11.43;;
58242;SDS011;50118;53.232;8.252;2023-05-10T00:05:01;17.38;;;12.30;;
58242;SDS011;50118;53.232;8.252;2023-05-10T00:07:26;13.98;;;10.68;;
58242;SDS011;50118;53.232;8.252;2023-05-10T00:09:52;14.52;;;11.35;;
58242;SDS011;50118;53.232;8.252;2023-05-10T00:12:18;14.43;;;11.35;;
58242;SDS011;50118;53.232;8.252;2023-05-10T00:14:43;16.88;;;12.20;;
58242;SDS011;50118;53.232;8.252;2023-05-10T00:17:08;14.82;;;11.02;;
58242;SDS011;50118;53.232;8.252;2023-05-10T00:19:34;13.40;;;10.48;;
58242;SDS011;50118;53.232;8.252;2023-05-10T00:21:59;13.60;;;10.80;;
58242;SDS011;50118;53.232;8.252;2023-05-10T00:24:25;13.50;;;9.77;;
58242;SDS011;50118;53.232;8.252;2023-05-10T00:26:50;15.25;;;10.77;;
58242;SDS011;50118;53.232;8.252;2023-05-10T00:29:16;15.52;;;10.55;;
58242;SDS011;50118;53.232;8.252;2023-05-10T00:31:41;13.23;;;10.43;;
58242;SDS011;50118;53.232;8.252;2023-05-10T00:34:07;12.07;;;9.27;;
58242;SDS011;50118;53.232;8.252;2023-05-10T00:36:32;13.10;;;9.80;;
58242;SDS011;50118;53.232;8.252;2023-05-10T00:38:57;13.23;;;10.05;;
58242;SDS011;50118;53.232;8.252;2023-05-10T00:41:23;12.05;;;9.73;;
58242;SDS011;50118;53.232;8.252;2023-05-10T00:43:49;12.88;;;9.23;;
58242;SDS011;50118;53.232;8.252;2023-05-10T00:46:14;12.32;;;9.27;;
58242;SDS011;50118;53.232;8.252;2023-05-10T00:48:40;13.82;;;9.75;;
58242;SDS011;50118;53.232;8.252;2023-05-10T00:51:06;13.95;;;10.10;;
58242;SDS011;50118;53.232;8.252;2023-05-10T00:53:32;12.20;;;9.52;;
58242;SDS011;50118;53.232;8.252;2023-05-10T00:55:59;15.30;;;11.00;;
58242;SDS011;50118;53.232;8.252;2023-05-10T00:58:25;17.42;;;11.15;;
58242;SDS011;50118;53.232;8.252;2023-05-10T01:00:54;14.15;;;10.43;;
58242;SDS011;50118;53.232;8.252;2023-05-10T01:03:20;15.98;;;11.85;;
58242;SDS011;50118;53.232;8.252;2023-05-10T01:05:46;15.27;;;11.30;;
58242;SDS011;50118;53.232;8.252;2023-05-10T01:08:12;16.67;;;12.65;;
58242;SDS011;50118;53.232;8.252;2023-05-10T01:10:37;14.68;;;11.10;;
58242;SDS011;50118;53.232;8.252;2023-05-10T01:13:03;15.70;;;12.00;;
58242;SDS011;50118;53.232;8.252;2023-05-10T01:15:28;17.08;;;11.85;;
58242;SDS011;50118;53.232;8.252;2023-05-10T01:17:55;18.52;;;12.10;;
58242;SDS011;50118;53.232;8.252;2023-05-10T01:20:21;18.10;;;13.23;;
58242;SDS011;50118;53.232;8.252;2023-05-10T01:23:04;16.40;;;11.05;;
58242;SDS011;50118;53.232;8.252;2023-05-10T01:28:42;19.70;;;13.32;;
58242;SDS011;50118;53.232;8.252;2023-05-10T01:34:23;21.60;;;15.25;;
58242;SDS011;50118;53.232;8.252;2023-05-10T01:36:58;20.40;;;14.95;;
58242;SDS011;50118;53.232;8.252;2023-05-10T01:42:25;20.25;;;14.13;;
58242;SDS011;50118;53.232;8.252;2023-05-10T01:44:56;18.85;;;13.75;;
58242;SDS011;50118;53.232;8.252;2023-05-10T01:47:43;18.67;;;13.25;;
58242;SDS011;50118;53.232;8.252;2023-05-10T01:50:10;18.50;;;13.13;;
58242;SDS011;50118;53.232;8.252;2023-05-10T01:52:42;19.42;;;13.82;;
58242;SDS011;50118;53.232;8.252;2023-05-10T01:55:14;19.33;;;13.65;;
58242;SDS011;50118;53.232;8.252;2023-05-10T01:57:42;20.05;;;14.60;;
58242;SDS011;50118;53.232;8.252;2023-05-10T02:00:09;18.60;;;13.70;;
58242;SDS011;50118;53.232;8.252;2023-05-10T02:02:37;17.23;;;13.23;;
58242;SDS011;50118;53.232;8.252;2023-05-10T02:05:05;21.08;;;14.05;;
58242;SDS011;50118;53.232;8.252;2023-05-10T02:07:33;17.95;;;13.15;;
58242;SDS011;50118;53.232;8.252;2023-05-10T02:10:04;18.05;;;12.93;;
58242;SDS011;50118;53.232;8.252;2023-05-10T02:12:31;22.17;;;14.77;;
58242;SDS011;50118;53.232;8.252;2023-05-10T02:15:01;18.88;;;13.77;;
58242;SDS011;50118;53.232;8.252;2023-05-10T02:17:30;21.05;;;13.90;;
58242;SDS011;50118;53.232;8.252;2023-05-10T02:19:57;19.35;;;13.63;;
58242;SDS011;50118;53.232;8.252;2023-05-10T02:22:24;19.35;;;13.32;;
58242;SDS011;50118;53.232;8.252;2023-05-10T02:24:51;19.50;;;13.63;;
58242;SDS011;50118;53.232;8.252;2023-05-10T02:27:19;22.25;;;14.85;;
58242;SDS011;50118;53.232;8.252;2023-05-10T02:29:45;21.13;;;14.50;;
58242;SDS011;50118;53.232;8.252;2023-05-10T02:32:12;20.55;;;14.73;;
58242;SDS011;50118;53.232;8.252;2023-05-10T02:34:39;21.02;;;13.63;;
58242;SDS011;50118;53.232;8.252;2023-05-10T02:37:06;21.48;;;14.60;;
58242;SDS011;50118;53.232;8.252;2023-05-10T02:39:32;20.65;;;14.30;;
58242;SDS011;50118;53.232;8.252;2023-05-10T02:41:59;20.42;;;14.80;;
58242;SDS011;50118;53.232;8.252;2023-05-10T02:44:27;20.70;;;14.20;;
58242;SDS011;50118;53.232;8.252;2023-05-10T02:46:56;19.45;;;14.68;;
58242;SDS011;50118;53.232;8.252;2023-05-10T02:49:22;19.75;;;13.27;;
58242;SDS011;50118;53.232;8.252;2023-05-10T02:51:49;17.13;;;11.70;;
58242;SDS011;50118;53.232;8.252;2023-05-10T02:54:20;15.52;;;11.10;;
58242;SDS011;50118;53.232;8.252;2023-05-10T02:56:56;15.07;;;11.95;;
58242;SDS011;50118;53.232;8.252;2023-05-10T02:59:26;15.43;;;11.38;;
58242;SDS011;50118;53.232;8.252;2023-05-10T03:01:52;14.30;;;10.25;;
58242;SDS011;50118;53.232;8.252;2023-05-10T03:04:17;16.05;;;11.60;;
58242;SDS011;50118;53.232;8.252;2023-05-10T03:06:46;16.02;;;11.07;;
58242;SDS011;50118;53.232;8.252;2023-05-10T03:09:12;17.38;;;13.40;;
58242;SDS011;50118;53.232;8.252;2023-05-10T03:14:45;15.70;;;12.10;;
58242;SDS011;50118;53.232;8.252;2023-05-10T03:17:22;17.73;;;11.95;;
58242;SDS011;50118;53.232;8.252;2023-05-10T03:19:54;17.88;;;12.73;;
58242;SDS011;50118;53.232;8.252;2023-05-10T03:22:25;16.77;;;12.30;;
58242;SDS011;50118;53.232;8.252;2023-05-10T03:24:56;18.25;;;13.55;;
58242;SDS011;50118;53.232;8.252;2023-05-10T03:27:23;16.77;;;13.07;;
58242;SDS011;50118;53.232;8.252;2023-05-10T03:29:51;16.90;;;13.18;;
58242;SDS011;50118;53.232;8.252;2023-05-10T03:32:18;17.67;;;13.55;;
58242;SDS011;50118;53.232;8.252;2023-05-10T03:34:44;17.60;;;13.30;;
58242;SDS011;50118;53.232;8.252;2023-05-10T03:37:09;19.88;;;14.02;;
58242;SDS011;50118;53.232;8.252;2023-05-10T03:39:35;19.25;;;13.70;;
58242;SDS011;50118;53.232;8.252;2023-05-10T03:42:00;18.63;;;13.68;;
58242;SDS011;50118;53.232;8.252;2023-05-10T03:44:26;18.75;;;13.57;;
58242;SDS011;50118;53.232;8.252;2023-05-10T03:46:51;19.08;;;14.02;;
58242;SDS011;50118;53.232;8.252;2023-05-10T03:49:17;20.02;;;14.75;;
58242;SDS011;50118;53.232;8.252;2023-05-10T03:51:43;20.65;;;14.60;;
58242;SDS011;50118;53.232;8.252;2023-05-10T03:54:08;19.75;;;14.27;;
58242;SDS011;50118;53.232;8.252;2023-05-10T03:56:34;20.55;;;15.45;;
58242;SDS011;50118;53.232;8.252;2023-05-10T03:58:59;19.40;;;15.68;;
58242;SDS011;50118;53.232;8.252;2023-05-10T04:01:32;19.35;;;14.30;;
58242;SDS011;50118;53.232;8.252;2023-05-10T04:03:58;19.17;;;14.88;;
58242;SDS011;50118;53.232;8.252;2023-05-10T04:06:23;20.33;;;15.68;;
58242;SDS011;50118;53.232;8.252;2023-05-10T04:08:49;19.65;;;14.98;;
58242;SDS011;50118;53.232;8.252;2023-05-10T04:11:14;20.50;;;15.15;;
58242;SDS011;50118;53.232;8.252;2023-05-10T04:13:40;21.80;;;15.73;;
58242;SDS011;50118;53.232;8.252;2023-05-10T04:16:07;23.83;;;16.55;;
58242;SDS011;50118;53.232;8.252;2023-05-10T04:18:33;22.48;;;15.38;;
58242;SDS011;50118;53.232;8.252;2023-05-10T04:20:59;22.65;;;16.17;;
58242;SDS011;50118;53.232;8.252;2023-05-10T04:23:25;23.90;;;16.52;;
58242;SDS011;50118;53.232;8.252;2023-05-10T04:25:52;22.52;;;16.95;;
58242;SDS011;50118;53.232;8.252;2023-05-10T04:28:17;22.83;;;16.80;;
58242;SDS011;50118;53.232;8.252;2023-05-10T04:30:43;22.35;;;15.38;;
58242;SDS011;50118;53.232;8.252;2023-05-10T04:33:21;21.63;;;16.48;;
58242;SDS011;50118;53.232;8.252;2023-05-10T04:35:46;17.80;;;14.10;;
58242;SDS011;50118;53.232;8.252;2023-05-10T04:38:12;23.15;;;17.02;;
58242;SDS011;50118;53.232;8.252;2023-05-10T04:40:37;23.77;;;16.90;;
58242;SDS011;50118;53.232;8.252;2023-05-10T04:43:06;18.00;;;14.07;;
58242;SDS011;50118;53.232;8.252;2023-05-10T04:45:32;20.10;;;14.90;;
58242;SDS011;50118;53.232;8.252;2023-05-10T04:47:57;21.13;;;15.95;;
58242;SDS011;50118;53.232;8.252;2023-05-10T04:50:23;19.80;;;15.05;;
58242;SDS011;50118;53.232;8.252;2023-05-10T04:52:48;22.40;;;15.90;;
58242;SDS011;50118;53.232;8.252;2023-05-10T04:55:14;22.00;;;15.65;;
58242;SDS011;50118;53.232;8.252;2023-05-10T04:57:39;18.67;;;14.30;;
58242;SDS011;50118;53.232;8.252;2023-05-10T05:00:05;22.33;;;16.33;;
58242;SDS011;50118;53.232;8.252;2023-05-10T05:02:31;21.20;;;15.70;;
58242;SDS011;50118;53.232;8.252;2023-05-10T05:04:56;15.57;;;10.80;;
58242;SDS011;50118;53.232;8.252;2023-05-10T05:07:22;17.38;;;12.30;;
58242;SDS011;50118;53.232;8.252;2023-05-10T05:09:48;18.25;;;11.98;;
58242;SDS011;50118;53.232;8.252;2023-05-10T05:12:13;9.15;;;6.20;;
58242;SDS011;50118;53.232;8.252;2023-05-10T05:14:39;7.38;;;4.60;;
58242;SDS011;50118;53.232;8.252;2023-05-10T05:17:06;8.23;;;4.20;;
58242;SDS011;50118;53.232;8.252;2023-05-10T05:19:31;6.10;;;3.88;;
58242;SDS011;50118;53.232;8.252;2023-05-10T05:21:57;7.13;;;3.78;;
58242;SDS011;50118;53.232;8.252;2023-05-10T05:24:23;6.90;;;4.30;;
58242;SDS011;50118;53.232;8.252;2023-05-10T05:26:48;8.27;;;4.82;;
58242;SDS011;50118;53.232;8.252;2023-05-10T05:29:14;7.75;;;4.88;;
58242;SDS011;50118;53.232;8.252;2023-05-10T05:31:39;9.20;;;5.07;;
58242;SDS011;50118;53.232;8.252;2023-05-10T05:34:04;8.75;;;5.13;;
58242;SDS011;50118;53.232;8.252;2023-05-10T05:36:30;7.88;;;4.97;;
58242;SDS011;50118;53.232;8.252;2023-05-10T05:38:56;9.50;;;5.47;;
58242;SDS011;50118;53.232;8.252;2023-05-10T05:41:22;9.25;;;5.50;;
58242;SDS011;50118;53.232;8.252;2023-05-10T05:43:49;9.73;;;5.40;;
58242;SDS011;50118;53.232;8.252;2023-05-10T05:46:15;9.50;;;5.70;;
58242;SDS011;50118;53.232;8.252;2023-05-10T05:48:40;9.52;;;6.00;;
58242;SDS011;50118;53.232;8.252;2023-05-10T05:51:06;8.93;;;5.95;;
58242;SDS011;50118;53.232;8.252;2023-05-10T05:53:31;9.57;;;5.85;;
58242;SDS011;50118;53.232;8.252;2023-05-10T05:55:57;9.10;;;5.55;;
58242;SDS011;50118;53.232;8.252;2023-05-10T05:58:24;9.20;;;5.65;;
58242;SDS011;50118;53.232;8.252;2023-05-10T06:00:50;9.48;;;5.50;;
58242;SDS011;50118;53.232;8.252;2023-05-10T06:03:17;10.88;;;6.00;;
58242;SDS011;50118;53.232;8.252;2023-05-10T06:05:43;10.57;;;6.20;;
58242;SDS011;50118;53.232;8.252;2023-05-10T06:08:08;9.68;;;5.75;;
58242;SDS011;50118;53.232;8.252;2023-05-10T06:10:34;9.38;;;5.70;;
58242;SDS011;50118;53.232;8.252;2023-05-10T06:13:00;9.65;;;6.00;;
58242;SDS011;50118;53.232;8.252;2023-05-10T06:15:26;9.48;;;6.05;;
58242;SDS011;50118;53.232;8.252;2023-05-10T06:17:55;9.70;;;6.20;;
58242;SDS011;50118;53.232;8.252;2023-05-10T06:20:21;9.57;;;6.05;;
58242;SDS011;50118;53.232;8.252;2023-05-10T06:22:46;9.32;;;5.68;;
58242;SDS011;50118;53.232;8.252;2023-05-10T06:25:12;9.70;;;5.80;;
58242;SDS011;50118;53.232;8.252;2023-05-10T06:27:39;8.93;;;5.90;;
58242;SDS011;50118;53.232;8.252;2023-05-10T06:30:05;8.20;;;5.68;;
58242;SDS011;50118;53.232;8.252;2023-05-10T06:32:31;9.23;;;6.03;;
58242;SDS011;50118;53.232;8.252;2023-05-10T06:34:56;9.45;;;6.18;;
58242;SDS011;50118;53.232;8.252;2023-05-10T06:37:22;9.02;;;5.60;;
58242;SDS011;50118;53.232;8.252;2023-05-10T06:39:48;12.25;;;6.03;;
58242;SDS011;50118;53.232;8.252;2023-05-10T06:42:13;8.30;;;5.47;;
58242;SDS011;50118;53.232;8.252;2023-05-10T06:44:39;8.30;;;5.90;;
58242;SDS011;50118;53.232;8.252;2023-05-10T06:47:07;7.85;;;5.55;;
58242;SDS011;50118;53.232;8.252;2023-05-10T06:49:32;8.18;;;5.63;;
58242;SDS011;50118;53.232;8.252;2023-05-10T06:51:58;7.70;;;5.30;;
58242;SDS011;50118;53.232;8.252;2023-05-10T06:54:23;7.97;;;5.80;;
58242;SDS011;50118;53.232;8.252;2023-05-10T06:56:49;8.85;;;5.70;;
58242;SDS011;50118;53.232;8.252;2023-05-10T06:59:15;9.05;;;5.70;;
58242;SDS011;50118;53.232;8.252;2023-05-10T07:01:41;9.40;;;6.53;;
58242;SDS011;50118;53.232;8.252;2023-05-10T07:04:07;9.93;;;6.60;;
58242;SDS011;50118;53.232;8.252;2023-05-10T07:06:33;10.68;;;7.15;;
58242;SDS011;50118;53.232;8.252;2023-05-10T07:08:59;10.32;;;6.93;;
58242;SDS011;50118;53.232;8.252;2023-05-10T07:11:25;13.82;;;6.75;;
58242;SDS011;50118;53.232;8.252;2023-05-10T07:13:51;10.25;;;6.90;;
58242;SDS011;50118;53.232;8.252;2023-05-10T07:16:17;11.52;;;7.63;;
58242;SDS011;50118;53.232;8.252;2023-05-10T07:18:42;10.23;;;7.32;;
58242;SDS011;50118;53.232;8.252;2023-05-10T07:21:08;10.70;;;7.50;;
58242;SDS011;50118;53.232;8.252;2023-05-10T07:23:33;12.38;;;7.85;;
58242;SDS011;50118;53.232;8.252;2023-05-10T07:25:59;10.93;;;7.18;;
58242;SDS011;50118;53.232;8.252;2023-05-10T07:28:25;12.07;;;6.68;;
58242;SDS011;50118;53.232;8.252;2023-05-10T07:30:50;10.70;;;6.93;;
58242;SDS011;50118;53.232;8.252;2023-05-10T07:33:16;10.35;;;7.32;;
58242;SDS011;50118;53.232;8.252;2023-05-10T07:35:42;9.40;;;6.00;;
58242;SDS011;50118;53.232;8.252;2023-05-10T07:38:08;7.82;;;5.60;;
58242;SDS011;50118;53.232;8.252;2023-05-10T07:40:33;9.50;;;6.47;;
58242;SDS011;50118;53.232;8.252;2023-05-10T07:42:59;11.80;;;6.15;;
58242;SDS011;50118;53.232;8.252;2023-05-10T07:45:27;10.88;;;6.72;;
58242;SDS011;50118;53.232;8.252;2023-05-10T07:47:53;9.90;;;6.90;;
58242;SDS011;50118;53.232;8.252;2023-05-10T07:50:19;9.88;;;7.10;;
58242;SDS011;50118;53.232;8.252;2023-05-10T07:52:46;10.05;;;6.60;;
58242;SDS011;50118;53.232;8.252;2023-05-10T07:55:11;10.85;;;6.35;;
58242;SDS011;50118;53.232;8.252;2023-05-10T07:57:37;9.05;;;6.07;;
58242;SDS011;50118;53.232;8.252;2023-05-10T08:00:03;8.57;;;5.57;;
58242;SDS011;50118;53.232;8.252;2023-05-10T08:02:29;10.52;;;6.65;;
58242;SDS011;50118;53.232;8.252;2023-05-10T08:04:55;8.52;;;6.50;;
58242;SDS011;50118;53.232;8.252;2023-05-10T08:07:20;10.13;;;6.72;;
58242;SDS011;50118;53.232;8.252;2023-05-10T08:09:46;10.80;;;7.03;;
58242;SDS011;50118;53.232;8.252;2023-05-10T08:12:11;9.63;;;6.20;;
58242;SDS011;50118;53.232;8.252;2023-05-10T08:14:37;8.05;;;6.03;;
58242;SDS011;50118;53.232;8.252;2023-05-10T08:17:03;9.02;;;6.07;;
58242;SDS011;50118;53.232;8.252;2023-05-10T08:19:28;8.10;;;5.63;;
58242;SDS011;50118;53.232;8.252;2023-05-10T08:21:54;7.85;;;5.45;;
58242;SDS011;50118;53.232;8.252;2023-05-10T08:24:20;8.18;;;5.25;;
58242;SDS011;50118;53.232;8.252;2023-05-10T08:26:46;6.95;;;4.95;;
58242;SDS011;50118;53.232;8.252;2023-05-10T08:29:12;8.13;;;4.70;;
58242;SDS011;50118;53.232;8.252;2023-05-10T08:31:38;7.72;;;4.97;;
58242;SDS011;50118;53.232;8.252;2023-05-10T08:34:04;7.50;;;5.10;;
58242;SDS011;50118;53.232;8.252;2023-05-10T08:36:29;7.47;;;4.93;;
58242;SDS011;50118;53.232;8.252;2023-05-10T08:38:55;6.65;;;4.85;;
58242;SDS011;50118;53.232;8.252;2023-05-10T08:41:21;7.85;;;4.68;;
58242;SDS011;50118;53.232;8.252;2023-05-10T08:43:49;6.28;;;3.78;;
58242;SDS011;50118;53.232;8.252;2023-05-10T08:46:16;5.57;;;3.97;;
58242;SDS011;50118;53.232;8.252;2023-05-10T08:48:44;4.90;;;3.67;;
58242;SDS011;50118;53.232;8.252;2023-05-10T08:51:12;6.40;;;3.97;;
58242;SDS011;50118;53.232;8.252;2023-05-10T08:53:39;6.07;;;3.85;;
58242;SDS011;50118;53.232;8.252;2023-05-10T08:56:05;5.97;;;3.80;;
58242;SDS011;50118;53.232;8.252;2023-05-10T08:58:31;4.93;;;3.40;;
58242;SDS011;50118;53.232;8.252;2023-05-10T09:00:57;6.28;;;3.40;;
58242;SDS011;50118;53.232;8.252;2023-05-10T09:03:24;4.20;;;2.88;;
58242;SDS011;50118;53.232;8.252;2023-05-10T09:05:49;5.05;;;3.38;;
58242;SDS011;50118;53.232;8.252;2023-05-10T09:08:15;4.82;;;3.10;;
58242;SDS011;50118;53.232;8.252;2023-05-10T09:10:42;5.45;;;3.15;;
58242;SDS011;50118;53.232;8.252;2023-05-10T09:13:10;4.85;;;3.40;;
58242;SDS011;50118;53.232;8.252;2023-05-10T09:15:36;4.85;;;3.28;;
58242;SDS011;50118;53.232;8.252;2023-05-10T09:18:02;4.68;;;3.22;;
58242;SDS011;50118;53.232;8.252;2023-05-10T09:20:27;5.55;;;3.40;;
58242;SDS011;50118;53.232;8.252;2023-05-10T09:22:53;4.85;;;3.08;;
58242;SDS011;50118;53.232;8.252;2023-05-10T09:25:19;5.88;;;2.95;;
58242;SDS011;50118;53.232;8.252;2023-05-10T09:27:45;4.68;;;3.08;;
58242;SDS011;50118;53.232;8.252;2023-05-10T09:30:25;4.60;;;2.83;;
58242;SDS011;50118;53.232;8.252;2023-05-10T09:32:52;5.05;;;2.63;;
58242;SDS011;50118;53.232;8.252;2023-05-10T09:35:20;4.10;;;2.60;;
58242;SDS011;50118;53.232;8.252;2023-05-10T09:37:48;4.03;;;2.70;;
58242;SDS011;50118;53.232;8.252;2023-05-10T09:40:15;4.22;;;2.88;;
58242;SDS011;50118;53.232;8.252;2023-05-10T09:42:55;4.80;;;2.70;;
58242;SDS011;50118;53.232;8.252;2023-05-10T09:45:21;5.45;;;2.90;;
58242;SDS011;50118;53.232;8.252;2023-05-10T09:47:48;3.80;;;2.90;;
58242;SDS011;50118;53.232;8.252;2023-05-10T09:50:13;4.35;;;2.60;;
58242;SDS011;50118;53.232;8.252;2023-05-10T09:52:46;5.38;;;2.60;;
58242;SDS011;50118;53.232;8.252;2023-05-10T09:55:16;4.10;;;2.55;;
58242;SDS011;50118;53.232;8.252;2023-05-10T09:57:47;3.70;;;2.70;;
58242;SDS011;50118;53.232;8.252;2023-05-10T10:00:17;4.40;;;3.00;;
58242;SDS011;50118;53.232;8.252;2023-05-10T10:02:47;4.43;;;3.13;;
58242;SDS011;50118;53.232;8.252;2023-05-10T10:05:19;4.07;;;3.00;;
58242;SDS011;50118;53.232;8.252;2023-05-10T10:07:44;3.63;;;2.05;;
58242;SDS011;50118;53.232;8.252;2023-05-10T10:10:10;3.03;;;2.30;;
58242;SDS011;50118;53.232;8.252;2023-05-10T10:12:37;2.88;;;1.80;;
58242;SDS011;50118;53.232;8.252;2023-05-10T10:15:05;3.33;;;1.80;;
58242;SDS011;50118;53.232;8.252;2023-05-10T10:17:32;4.72;;;2.05;;
58242;SDS011;50118;53.232;8.252;2023-05-10T10:20:01;3.35;;;1.92;;
58242;SDS011;50118;53.232;8.252;2023-05-10T10:22:28;1.85;;;1.70;;
58242;SDS011;50118;53.232;8.252;2023-05-10T10:24:53;1.50;;;1.20;;
58242;SDS011;50118;53.232;8.252;2023-05-10T10:35:21;0.60;;;0.60;;
58242;SDS011;50118;53.232;8.252;2023-05-10T10:37:47;0.85;;;0.60;;
58242;SDS011;50118;53.232;8.252;2023-05-10T10:40:31;0.80;;;0.60;;
58242;SDS011;50118;53.232;8.252;2023-05-10T10:42:58;0.30;;;0.30;;
58242;SDS011;50118;53.232;8.252;2023-05-10T10:48:39;0.50;;;0.38;;
58242;SDS011;50118;53.232;8.252;2023-05-10T10:51:04;0.38;;;0.35;;
58242;SDS011;50118;53.232;8.252;2023-05-10T10:53:30;0.63;;;0.47;;
58242;SDS011;50118;53.232;8.252;2023-05-10T10:58:32;0.43;;;0.43;;
58242;SDS011;50118;53.232;8.252;2023-05-10T11:01:09;1.00;;;0.70;;
58242;SDS011;50118;53.232;8.252;2023-05-10T11:03:38;1.23;;;0.60;;
58242;SDS011;50118;53.232;8.252;2023-05-10T11:06:03;0.63;;;0.57;;
58242;SDS011;50118;53.232;8.252;2023-05-10T11:08:30;0.60;;;0.60;;
58242;SDS011;50118;53.232;8.252;2023-05-10T11:13:43;0.60;;;0.60;;
58242;SDS011;50118;53.232;8.252;2023-05-10T11:16:20;0.60;;;0.60;;
58242;SDS011;50118;53.232;8.252;2023-05-10T11:18:52;2.63;;;0.90;;
58242;SDS011;50118;53.232;8.252;2023-05-10T11:21:18;0.70;;;0.70;;
58242;SDS011;50118;53.232;8.252;2023-05-10T11:26:12;0.70;;;0.70;;
58242;SDS011;50118;53.232;8.252;2023-05-10T11:28:45;1.25;;;0.80;;
58242;SDS011;50118;53.232;8.252;2023-05-10T11:31:14;0.70;;;0.70;;
58242;SDS011;50118;53.232;8.252;2023-05-10T11:33:44;1.20;;;1.00;;
58242;SDS011;50118;53.232;8.252;2023-05-10T11:36:19;1.35;;;1.20;;
58242;SDS011;50118;53.232;8.252;2023-05-10T11:38:47;1.85;;;1.50;;
58242;SDS011;50118;53.232;8.252;2023-05-10T11:41:13;2.55;;;1.55;;
58242;SDS011;50118;53.232;8.252;2023-05-10T11:43:40;3.10;;;2.05;;
58242;SDS011;50118;53.232;8.252;2023-05-10T11:46:10;3.35;;;2.55;;
58242;SDS011;50118;53.232;8.252;2023-05-10T11:48:38;4.40;;;3.10;;
58242;SDS011;50118;53.232;8.252;2023-05-10T11:51:07;5.00;;;3.03;;
58242;SDS011;50118;53.232;8.252;2023-05-10T11:53:35;4.65;;;3.60;;
58242;SDS011;50118;53.232;8.252;2023-05-10T11:56:07;4.75;;;3.92;;
58242;SDS011;50118;53.232;8.252;2023-05-10T11:58:33;5.55;;;4.78;;
58242;SDS011;50118;53.232;8.252;2023-05-10T12:01:00;6.32;;;5.28;;
58242;SDS011;50118;53.232;8.252;2023-05-10T12:03:27;7.82;;;6.18;;
58242;SDS011;50118;53.232;8.252;2023-05-10T12:05:53;6.97;;;6.00;;
58242;SDS011;50118;53.232;8.252;2023-05-10T12:08:20;8.10;;;6.80;;
58242;SDS011;50118;53.232;8.252;2023-05-10T12:10:48;8.98;;;7.30;;
58242;SDS011;50118;53.232;8.252;2023-05-10T12:13:14;8.25;;;6.80;;
58242;SDS011;50118;53.232;8.252;2023-05-10T12:15:40;8.52;;;6.22;;
58242;SDS011;50118;53.232;8.252;2023-05-10T12:18:08;7.68;;;6.20;;
58242;SDS011;50118;53.232;8.252;2023-05-10T12:20:38;8.38;;;6.80;;
58242;SDS011;50118;53.232;8.252;2023-05-10T12:23:04;8.77;;;6.65;;
58242;SDS011;50118;53.232;8.252;2023-05-10T12:25:33;8.70;;;7.15;;
58242;SDS011;50118;53.232;8.252;2023-05-10T12:28:00;9.65;;;7.28;;
58242;SDS011;50118;53.232;8.252;2023-05-10T12:30:29;7.75;;;6.07;;
58242;SDS011;50118;53.232;8.252;2023-05-10T12:33:02;8.65;;;6.63;;
58242;SDS011;50118;53.232;8.252;2023-05-10T12:35:43;8.50;;;7.35;;
58242;SDS011;50118;53.232;8.252;2023-05-10T12:38:27;9.65;;;7.78;;
58242;SDS011;50118;53.232;8.252;2023-05-10T12:41:07;9.10;;;7.18;;
58242;SDS011;50118;53.232;8.252;2023-05-10T12:43:43;11.68;;;8.70;;
58242;SDS011;50118;53.232;8.252;2023-05-10T12:46:09;10.07;;;7.38;;
58242;SDS011;50118;53.232;8.252;2023-05-10T12:48:36;10.10;;;7.85;;
58242;SDS011;50118;53.232;8.252;2023-05-10T12:51:02;11.13;;;8.43;;
58242;SDS011;50118;53.232;8.252;2023-05-10T12:53:29;10.13;;;7.82;;
58242;SDS011;50118;53.232;8.252;2023-05-10T12:55:54;11.43;;;8.35;;
58242;SDS011;50118;53.232;8.252;2023-05-10T12:58:20;10.88;;;8.18;;
58242;SDS011;50118;53.232;8.252;2023-05-10T13:00:45;11.88;;;9.10;;
58242;SDS011;50118;53.232;8.252;2023-05-10T13:03:11;14.80;;;8.98;;
58242;SDS011;50118;53.232;8.252;2023-05-10T13:05:37;10.82;;;8.75;;
58242;SDS011;50118;53.232;8.252;2023-05-10T13:08:03;10.65;;;8.63;;
58242;SDS011;50118;53.232;8.252;2023-05-10T13:10:29;12.30;;;8.93;;
58242;SDS011;50118;53.232;8.252;2023-05-10T13:12:55;9.45;;;7.72;;
58242;SDS011;50118;53.232;8.252;2023-05-10T13:15:22;10.77;;;7.88;;
58242;SDS011;50118;53.232;8.252;2023-05-10T13:17:47;13.38;;;8.23;;
58242;SDS011;50118;53.232;8.252;2023-05-10T13:20:13;10.80;;;8.40;;
58242;SDS011;50118;53.232;8.252;2023-05-10T13:22:39;8.43;;;7.05;;
58242;SDS011;50118;53.232;8.252;2023-05-10T13:25:04;7.82;;;6.30;;
58242;SDS011;50118;53.232;8.252;2023-05-10T13:27:30;6.90;;;4.68;;
58242;SDS011;50118;53.232;8.252;2023-05-10T13:29:56;6.63;;;4.60;;
58242;SDS011;50118;53.232;8.252;2023-05-10T13:32:28;6.30;;;4.50;;
58242;SDS011;50118;53.232;8.252;2023-05-10T13:34:54;6.95;;;4.50;;
58242;SDS011;50118;53.232;8.252;2023-05-10T13:37:20;6.25;;;4.50;;
58242;SDS011;50118;53.232;8.252;2023-05-10T13:39:46;5.45;;;4.38;;
58242;SDS011;50118;53.232;8.252;2023-05-10T13:42:12;6.28;;;4.55;;
58242;SDS011;50118;53.232;8.252;2023-05-10T13:44:38;6.30;;;4.07;;
58242;SDS011;50118;53.232;8.252;2023-05-10T13:47:06;7.13;;;4.55;;
58242;SDS011;50118;53.232;8.252;2023-05-10T13:49:32;5.57;;;4.00;;
58242;SDS011;50118;53.232;8.252;2023-05-10T13:51:57;7.18;;;4.78;;
58242;SDS011;50118;53.232;8.252;2023-05-10T13:54:23;6.82;;;4.38;;
58242;SDS011;50118;53.232;8.252;2023-05-10T13:56:49;5.97;;;4.22;;
58242;SDS011;50118;53.232;8.252;2023-05-10T13:59:15;5.38;;;4.07;;
58242;SDS011;50118;53.232;8.252;2023-05-10T14:01:41;5.80;;;3.88;;
58242;SDS011;50118;53.232;8.252;2023-05-10T14:04:08;5.28;;;3.80;;
58242;SDS011;50118;53.232;8.252;2023-05-10T14:06:35;5.35;;;3.50;;
58242;SDS011;50118;53.232;8.252;2023-05-10T14:09:02;4.93;;;3.60;;
58242;SDS011;50118;53.232;8.252;2023-05-10T14:11:28;5.07;;;3.65;;
58242;SDS011;50118;53.232;8.252;2023-05-10T14:13:53;5.10;;;3.75;;
58242;SDS011;50118;53.232;8.252;2023-05-10T14:16:19;5.20;;;4.00;;
58242;SDS011;50118;53.232;8.252;2023-05-10T14:18:45;5.20;;;3.83;;
58242;SDS011;50118;53.232;8.252;2023-05-10T14:21:13;5.10;;;4.18;;
58242;SDS011;50118;53.232;8.252;2023-05-10T14:23:39;5.93;;;4.30;;
58242;SDS011;50118;53.232;8.252;2023-05-10T14:26:04;6.20;;;3.50;;
58242;SDS011;50118;53.232;8.252;2023-05-10T14:28:30;4.50;;;3.42;;
58242;SDS011;50118;53.232;8.252;2023-05-10T14:30:55;4.35;;;3.30;;
58242;SDS011;50118;53.232;8.252;2023-05-10T14:33:21;5.75;;;3.85;;
58242;SDS011;50118;53.232;8.252;2023-05-10T14:35:46;4.88;;;3.70;;
58242;SDS011;50118;53.232;8.252;2023-05-10T14:38:13;5.53;;;3.67;;
58242;SDS011;50118;53.232;8.252;2023-05-10T14:40:38;4.75;;;3.80;;
58242;SDS011;50118;53.232;8.252;2023-05-10T14:43:04;5.40;;;3.50;;
58242;SDS011;50118;53.232;8.252;2023-05-10T14:45:29;5.40;;;3.25;;
58242;SDS011;50118;53.232;8.252;2023-05-10T14:47:55;4.00;;;3.25;;
58242;SDS011;50118;53.232;8.252;2023-05-10T14:50:22;4.68;;;3.22;;
58242;SDS011;50118;53.232;8.252;2023-05-10T14:52:47;4.45;;;3.30;;
58242;SDS011;50118;53.232;8.252;2023-05-10T14:55:14;5.70;;;3.47;;
58242;SDS011;50118;53.232;8.252;2023-05-10T14:57:40;4.28;;;3.20;;
58242;SDS011;50118;53.232;8.252;2023-05-10T15:00:06;3.70;;;2.80;;
58242;SDS011;50118;53.232;8.252;2023-05-10T15:02:32;3.33;;;2.38;;
58242;SDS011;50118;53.232;8.252;2023-05-10T15:04:57;3.40;;;2.33;;
58242;SDS011;50118;53.232;8.252;2023-05-10T15:07:23;3.28;;;2.15;;